Adrian Maersk — OXLD2 — position and weather

sailwx.info

Track history (hours):
 
Tides and Currents Weather Stations Pressure Air Temp Water Temp Dewpoint Dewpoint Depression Visibility Wind Speed Wind Dir Waves Ship Positions

Adrian Maersk

Last reported at 2018-Jul-16 18:06 UTC. Time now 2018-Jul-22 16:31 UTC.
Position N 34°59' E 128°49'.

Length 349 m; draft 11.4 m.

Type: Ship. MMSI: 220245000.

Date/timePositionNaut miles runAvg speedWind from/ knotsBaromVisibWave heightAir tempDewpointWater temp
2018-Jul-16 18:06N 34°59' E 128°49'1 6.2
2018-Jul-16 18:00N 34°58' E 128°49'43010.3
2018-Jul-15 00:29N 30°37' E 122°03'4 7.6
2018-Jul-14 23:59N 30°35' E 122°07'  
2018-Jul-11 12:07N 24°10' E 118°41'217.1
2018-Jul-11 12:00N 24°09' E 118°39'817.0
2018-Jul-11 11:30N 24°04' E 118°32'917.9
2018-Jul-11 11:00N 23°58' E 118°24'917.7
2018-Jul-11 10:30N 23°53' E 118°17'917.6
2018-Jul-11 10:00N 23°47' E 118°09'1020.0
2018-Jul-11 09:30N 23°41' E 118°01'1122.5
2018-Jul-11 09:00N 23°34' E 117°51'1122.9
2018-Jul-11 08:30N 23°29' E 117°40'1122.6
2018-Jul-11 08:00N 23°22' E 117°30'1122.1
2018-Jul-11 07:30N 23°13' E 117°22'1021.5
2018-Jul-11 07:01N 23°05' E 117°15'1121.6
2018-Jul-11 06:30N 22°57' E 117°07'1121.5
2018-Jul-11 06:00N 22°50' E 116°58'  
Track history (hours):
 
Tides and Currents Weather Stations Pressure Air Temp Water Temp Dewpoint Dewpoint Depression Visibility Wind Speed Wind Dir Waves Ship Positions

Adrian Maersk

Last reported at 2018-Jul-16 18:06 UTC. Time now 2018-Jul-22 16:31 UTC.
Position N 34°59' E 128°49'.

Length 349 m; draft 11.4 m.

Type: Ship. MMSI: 220245000.

Date/timePositionNaut miles runAvg speedWind from/ knotsBaromVisibWave heightAir tempDewpointWater temp
2018-Jul-16 18:06N 34°59' E 128°49'1 6.2
2018-Jul-16 18:00N 34°58' E 128°49'43010.3
2018-Jul-15 00:29N 30°37' E 122°03'4 7.6
2018-Jul-14 23:59N 30°35' E 122°07'  
2018-Jul-11 12:07N 24°10' E 118°41'217.1
2018-Jul-11 12:00N 24°09' E 118°39'817.0
2018-Jul-11 11:30N 24°04' E 118°32'917.9
2018-Jul-11 11:00N 23°58' E 118°24'917.7
2018-Jul-11 10:30N 23°53' E 118°17'917.6
2018-Jul-11 10:00N 23°47' E 118°09'1020.0
2018-Jul-11 09:30N 23°41' E 118°01'1122.5
2018-Jul-11 09:00N 23°34' E 117°51'1122.9
2018-Jul-11 08:30N 23°29' E 117°40'1122.6
2018-Jul-11 08:00N 23°22' E 117°30'1122.1
2018-Jul-11 07:30N 23°13' E 117°22'1021.5
2018-Jul-11 07:01N 23°05' E 117°15'1121.6
2018-Jul-11 06:30N 22°57' E 117°07'1121.5
2018-Jul-11 06:00N 22°50' E 116°58'  

Dump ship's entire track history